createdAt,value
2022-08-17T00:00:11.029Z,54.45
2022-08-17T00:03:02.753Z,54.64
2022-08-17T00:05:32.197Z,54.36
2022-08-17T00:07:59.850Z,54.45
2022-08-17T00:10:27.705Z,55.09
2022-08-17T00:12:56.576Z,54.22
2022-08-17T00:15:25.103Z,54.90
2022-08-17T00:17:53.346Z,55.08
2022-08-17T00:20:30.376Z,54.64
2022-08-17T00:23:08.428Z,54.88
2022-08-17T00:25:36.227Z,54.78
2022-08-17T00:28:04.236Z,54.91
2022-08-17T00:30:51.316Z,55.00
2022-08-17T00:33:22.427Z,54.84
2022-08-17T00:35:51.798Z,55.20
2022-08-17T00:38:20.221Z,55.27
2022-08-17T00:40:50.651Z,55.31
2022-08-17T00:43:23.837Z,55.51
2022-08-17T00:45:51.389Z,55.26
2022-08-17T00:48:29.265Z,55.31
2022-08-17T00:51:06.439Z,55.50
2022-08-17T00:53:37.413Z,55.64
2022-08-17T00:56:09.814Z,56.12
2022-08-17T00:58:38.367Z,56.23
2022-08-17T01:01:08.068Z,55.79
2022-08-17T01:03:36.186Z,55.88
2022-08-17T01:06:07.209Z,56.13
2022-08-17T01:08:36.808Z,55.97
2022-08-17T01:11:06.329Z,55.90
2022-08-17T01:13:41.189Z,56.50
2022-08-17T01:16:16.951Z,55.87
2022-08-17T01:18:46.701Z,55.98
2022-08-17T01:21:21.851Z,55.86
2022-08-17T01:23:50.827Z,56.37
2022-08-17T01:26:19.111Z,56.47
2022-08-17T01:28:53.727Z,56.57
2022-08-17T01:31:25.065Z,56.29
2022-08-17T01:33:52.961Z,56.88
2022-08-17T01:36:20.576Z,56.48
2022-08-17T01:38:48.381Z,56.48
2022-08-17T01:41:18.011Z,56.90
2022-08-17T01:43:48.874Z,56.42
2022-08-17T01:46:21.185Z,56.59
2022-08-17T01:48:51.093Z,56.60
2022-08-17T01:51:19.938Z,56.66
2022-08-17T01:53:50.846Z,56.92
2022-08-17T01:56:23.383Z,57.17
2022-08-17T01:58:52.401Z,56.71
2022-08-17T02:01:23.171Z,57.04
2022-08-17T02:03:56.296Z,56.95
2022-08-17T02:06:29.255Z,57.22
2022-08-17T02:09:02.554Z,57.26
2022-08-17T02:11:34.572Z,57.27
2022-08-17T02:14:04.120Z,56.99
2022-08-17T02:16:37.853Z,57.04
2022-08-17T02:19:08.447Z,57.63
2022-08-17T02:21:36.527Z,57.55
2022-08-17T02:24:05.578Z,57.45
2022-08-17T02:26:34.699Z,57.73
2022-08-17T02:29:04.125Z,57.53
2022-08-17T02:31:32.002Z,57.32
2022-08-17T02:34:03.910Z,57.47
2022-08-17T02:36:33.935Z,57.42
2022-08-17T02:39:02.198Z,57.47
2022-08-17T02:41:29.772Z,58.04
2022-08-17T02:43:58.855Z,57.71
2022-08-17T02:46:26.921Z,57.66
2022-08-17T02:48:54.570Z,57.90
2022-08-17T02:51:22.153Z,57.97
2022-08-17T02:53:49.814Z,57.83
2022-08-17T02:56:17.490Z,57.58
2022-08-17T02:58:46.368Z,57.98
2022-08-17T03:01:15.808Z,57.74
2022-08-17T03:03:43.551Z,57.75
2022-08-17T03:06:11.395Z,57.96
2022-08-17T03:08:38.963Z,58.08
2022-08-17T03:11:06.618Z,57.85
2022-08-17T03:13:34.208Z,58.31
2022-08-17T03:16:01.829Z,58.84
2022-08-17T03:18:30.753Z,58.48
2022-08-17T03:21:04.241Z,58.26
2022-08-17T03:23:32.547Z,58.52
2022-08-17T03:26:01.567Z,58.13
2022-08-17T03:28:29.845Z,58.73
2022-08-17T03:30:57.534Z,58.31
2022-08-17T03:33:25.100Z,58.36
2022-08-17T03:35:54.072Z,58.57
2022-08-17T03:38:21.995Z,58.58
2022-08-17T03:40:56.488Z,58.53
2022-08-17T03:43:29.463Z,58.50
2022-08-17T03:46:27.689Z,58.41
2022-08-17T03:49:17.579Z,58.98
2022-08-17T03:52:04.006Z,58.81
2022-08-17T03:54:49.713Z,58.95
2022-08-17T03:57:17.430Z,58.75
2022-08-17T03:59:45.369Z,58.87
2022-08-17T04:02:18.531Z,58.76
2022-08-17T04:04:46.753Z,58.76
2022-08-17T04:07:15.687Z,58.91
2022-08-17T04:09:44.582Z,58.93
2022-08-17T04:12:13.500Z,58.82
2022-08-17T04:14:53.678Z,59.05
2022-08-17T04:17:23.540Z,58.78
2022-08-17T04:19:51.319Z,58.74
2022-08-17T04:22:32.401Z,59.13
2022-08-17T04:25:04.145Z,59.28
2022-08-17T04:27:31.750Z,59.53
2022-08-17T04:29:59.690Z,59.11
2022-08-17T04:33:04.150Z,59.33
2022-08-17T04:35:19.579Z,59.43
2022-08-17T04:37:48.601Z,59.39
2022-08-17T04:40:33.766Z,59.71
2022-08-17T04:43:02.934Z,59.17
2022-08-17T04:45:32.341Z,59.11
2022-08-17T04:48:00.894Z,59.42
2022-08-17T04:50:28.743Z,59.25
2022-08-17T04:52:57.873Z,59.14
2022-08-17T04:55:25.843Z,59.68
2022-08-17T04:57:54.011Z,59.67
2022-08-17T05:00:22.406Z,59.43
2022-08-17T05:02:52.495Z,59.38
2022-08-17T05:05:21.219Z,58.64
2022-08-17T05:07:49.032Z,59.03
2022-08-17T05:10:18.165Z,59.10
2022-08-17T05:12:45.719Z,59.56
2022-08-17T05:15:15.939Z,59.25
2022-08-17T05:17:43.665Z,59.11
2022-08-17T05:20:12.371Z,58.82
2022-08-17T05:22:50.159Z,54.91
2022-08-17T05:25:24.939Z,55.08
2022-08-17T05:27:54.150Z,57.19
2022-08-17T05:30:23.023Z,58.16
2022-08-17T05:32:55.435Z,58.38
2022-08-17T05:35:23.752Z,58.21
2022-08-17T05:37:51.516Z,57.92
2022-08-17T05:40:24.273Z,55.64
2022-08-17T05:42:51.987Z,52.70
2022-08-17T05:45:54.916Z,52.26
2022-08-17T05:48:10.273Z,51.91
2022-08-17T05:50:49.647Z,50.74
2022-08-17T05:53:23.875Z,51.72
2022-08-17T05:56:03.827Z,53.27
2022-08-17T05:58:41.928Z,56.21
2022-08-17T06:01:16.571Z,57.50
2022-08-17T06:03:50.260Z,57.88
2022-08-17T06:06:32.709Z,57.71
2022-08-17T06:09:14.459Z,57.80
2022-08-17T06:11:53.646Z,58.11
2022-08-17T06:14:37.470Z,57.88
2022-08-17T06:17:10.040Z,57.83
2022-08-17T06:19:43.213Z,57.98
2022-08-17T06:22:14.430Z,57.37
2022-08-17T06:24:46.827Z,58.05
2022-08-17T06:27:24.393Z,58.92
2022-08-17T06:29:58.412Z,59.18
2022-08-17T06:32:26.577Z,58.50
2022-08-17T06:34:55.374Z,59.45
2022-08-17T06:37:42.003Z,58.07
2022-08-17T06:40:29.202Z,58.19
2022-08-17T06:43:12.440Z,58.79
2022-08-17T06:45:49.557Z,58.17
2022-08-17T06:48:25.872Z,57.79
2022-08-17T06:51:00.087Z,58.41
2022-08-17T06:53:32.984Z,58.28
2022-08-17T06:56:05.967Z,58.04
2022-08-17T06:58:37.425Z,58.25
2022-08-17T07:01:12.990Z,58.38
2022-08-17T07:03:47.693Z,57.99
2022-08-17T07:06:18.453Z,57.67
2022-08-17T07:08:54.082Z,57.17
2022-08-17T07:11:28.357Z,56.93
2022-08-17T07:14:08.425Z,56.44
2022-08-17T07:16:42.068Z,56.38
2022-08-17T07:19:10.919Z,56.35
2022-08-17T07:21:54.940Z,56.82
2022-08-17T07:24:37.321Z,55.10
2022-08-17T07:27:17.035Z,56.67
2022-08-17T07:29:51.227Z,55.43
2022-08-17T07:32:24.064Z,55.33
2022-08-17T07:35:16.245Z,54.58
2022-08-17T07:37:53.059Z,55.88
2022-08-17T07:40:28.109Z,54.16
2022-08-17T07:43:05.079Z,55.10
2022-08-17T07:45:54.115Z,55.13
2022-08-17T07:48:26.949Z,54.47
2022-08-17T07:50:54.668Z,54.63
2022-08-17T07:53:24.542Z,53.97
2022-08-17T07:55:53.888Z,54.27
2022-08-17T07:58:23.862Z,54.31
2022-08-17T08:01:07.940Z,53.83
2022-08-17T08:03:42.572Z,54.32
2022-08-17T08:06:21.757Z,53.14
2022-08-17T08:08:53.412Z,52.93
2022-08-17T08:11:31.059Z,53.11
2022-08-17T08:14:21.704Z,52.58
2022-08-17T08:17:03.233Z,53.08
2022-08-17T08:19:32.456Z,52.33
2022-08-17T08:22:06.871Z,52.37
2022-08-17T08:24:50.226Z,53.09
2022-08-17T08:27:27.984Z,51.99
2022-08-17T08:30:05.219Z,51.93
2022-08-17T08:32:50.344Z,51.27
2022-08-17T08:35:26.821Z,50.88
2022-08-17T08:38:01.517Z,51.05
2022-08-17T08:40:39.453Z,50.78
2022-08-17T08:43:18.302Z,51.00
2022-08-17T08:45:56.637Z,50.86
2022-08-17T08:48:55.823Z,50.10
2022-08-17T08:51:37.577Z,50.34
2022-08-17T08:54:15.501Z,49.72
2022-08-17T08:57:11.987Z,49.22
2022-08-17T08:59:44.577Z,48.67
2022-08-17T09:02:34.912Z,48.77
2022-08-17T09:05:18.502Z,47.25
2022-08-17T09:07:57.396Z,47.26
2022-08-17T09:10:29.371Z,47.84
2022-08-17T09:13:09.893Z,47.59
2022-08-17T09:15:45.020Z,47.53
2022-08-17T09:19:00.795Z,46.79
2022-08-17T09:21:18.251Z,45.91
2022-08-17T09:23:59.806Z,45.84
2022-08-17T09:26:32.615Z,44.59
2022-08-17T09:29:04.723Z,44.67
2022-08-17T09:31:35.439Z,43.92
2022-08-17T09:34:33.293Z,43.58
2022-08-17T09:37:12.188Z,43.48
2022-08-17T09:39:46.281Z,42.53
2022-08-17T09:42:22.684Z,42.83
2022-08-17T09:44:57.426Z,43.64
2022-08-17T09:47:31.930Z,43.34
2022-08-17T09:50:07.036Z,41.93
2022-08-17T09:52:36.593Z,41.59
2022-08-17T09:55:07.474Z,42.17
2022-08-17T09:57:52.926Z,41.61
2022-08-17T10:00:25.034Z,41.49
2022-08-17T10:03:04.744Z,39.02
2022-08-17T10:05:37.728Z,39.12
2022-08-17T10:08:15.153Z,38.92
2022-08-17T10:10:56.505Z,40.11
2022-08-17T10:13:35.481Z,40.16
2022-08-17T10:16:15.130Z,40.61
2022-08-17T10:18:52.995Z,39.74
2022-08-17T10:21:40.642Z,39.29
2022-08-17T10:24:32.689Z,39.43
2022-08-17T10:27:02.918Z,39.25
2022-08-17T10:29:49.036Z,38.62
2022-08-17T10:32:26.476Z,38.92
2022-08-17T10:35:07.490Z,39.14
2022-08-17T10:37:49.212Z,39.18
2022-08-17T10:40:28.447Z,38.62
2022-08-17T10:43:00.046Z,38.66
2022-08-17T10:45:33.152Z,38.54
2022-08-17T10:48:06.067Z,38.38
2022-08-17T10:50:50.336Z,39.88
2022-08-17T10:53:52.709Z,38.71
2022-08-17T10:56:43.091Z,38.34
2022-08-17T10:59:10.778Z,38.21
2022-08-17T11:02:03.495Z,38.30
2022-08-17T11:04:47.782Z,37.38
2022-08-17T11:07:27.909Z,37.90
2022-08-17T11:10:19.765Z,38.22
2022-08-17T11:12:57.418Z,37.71
2022-08-17T11:15:45.823Z,36.09
2022-08-17T11:18:30.891Z,35.33
2022-08-17T11:21:18.564Z,34.24
2022-08-17T11:24:01.787Z,36.12
2022-08-17T11:26:32.506Z,36.43
2022-08-17T11:29:05.242Z,36.70
2022-08-17T11:31:39.172Z,36.22
2022-08-17T11:34:15.221Z,37.10
2022-08-17T11:37:01.499Z,35.36
2022-08-17T11:40:11.913Z,36.05
2022-08-17T11:43:13.499Z,35.13
2022-08-17T11:45:58.492Z,35.19
2022-08-17T11:48:54.011Z,35.38
2022-08-17T11:51:35.789Z,35.20
2022-08-17T11:54:31.878Z,35.74
2022-08-17T11:56:59.266Z,35.12
2022-08-17T11:59:55.788Z,35.21
2022-08-17T12:02:35.084Z,35.22
2022-08-17T12:05:26.117Z,34.67
2022-08-17T12:08:08.805Z,36.90
2022-08-17T12:10:41.803Z,36.00
2022-08-17T12:13:15.804Z,35.00
2022-08-17T12:15:49.666Z,34.77
2022-08-17T12:18:24.452Z,35.30
2022-08-17T12:21:19.614Z,34.74
2022-08-17T12:23:56.917Z,34.25
2022-08-17T12:26:30.307Z,34.32
2022-08-17T12:29:01.888Z,34.04
2022-08-17T12:31:33.788Z,34.51
2022-08-17T12:34:04.058Z,34.77
2022-08-17T12:36:33.274Z,35.79
2022-08-17T12:39:13.921Z,35.29
2022-08-17T12:41:44.505Z,35.25
2022-08-17T12:44:15.162Z,36.15
2022-08-17T12:46:49.549Z,35.38
2022-08-17T12:49:29.924Z,34.05
2022-08-17T12:52:12.341Z,34.01
2022-08-17T12:54:46.940Z,34.54
2022-08-17T12:57:18.130Z,35.03
2022-08-17T12:59:52.986Z,34.92
2022-08-17T13:02:29.087Z,36.69
2022-08-17T13:05:01.334Z,35.56
2022-08-17T13:07:35.405Z,35.27
2022-08-17T13:10:04.367Z,34.69
2022-08-17T13:12:35.093Z,34.84
2022-08-17T13:15:03.708Z,35.28
2022-08-17T13:17:36.473Z,34.82
2022-08-17T13:20:14.680Z,35.02
2022-08-17T13:22:44.416Z,34.84
2022-08-17T13:25:17.712Z,35.40
2022-08-17T13:27:54.776Z,35.11
2022-08-17T13:30:28.032Z,34.73
2022-08-17T13:32:58.016Z,35.48
2022-08-17T13:35:47.665Z,34.98
2022-08-17T13:38:36.528Z,35.58
2022-08-17T13:41:06.989Z,35.29
2022-08-17T13:43:40.234Z,35.87
2022-08-17T13:46:11.464Z,35.71
2022-08-17T13:48:39.520Z,35.62
2022-08-17T13:51:25.947Z,35.40
2022-08-17T13:54:01.435Z,35.36
2022-08-17T13:56:39.935Z,35.38
2022-08-17T13:59:12.354Z,36.55
2022-08-17T14:01:42.481Z,35.88
2022-08-17T14:04:12.977Z,35.38
2022-08-17T14:06:53.111Z,35.48
2022-08-17T14:09:25.679Z,35.59
2022-08-17T14:11:55.105Z,36.55
2022-08-17T14:14:23.773Z,36.53
2022-08-17T14:16:52.137Z,36.46
2022-08-17T14:19:22.013Z,36.28
2022-08-17T14:21:56.676Z,36.29
2022-08-17T14:24:28.535Z,36.97
2022-08-17T14:26:57.798Z,37.12
2022-08-17T14:29:28.899Z,37.50
2022-08-17T14:31:58.204Z,37.38
2022-08-17T14:34:26.639Z,37.55
2022-08-17T14:36:56.475Z,37.41
2022-08-17T14:39:24.506Z,37.58
2022-08-17T14:41:53.020Z,37.65
2022-08-17T14:44:20.992Z,38.27
2022-08-17T14:46:50.511Z,37.84
2022-08-17T14:49:20.702Z,37.74
2022-08-17T14:51:48.874Z,38.72
2022-08-17T14:54:32.965Z,38.02
2022-08-17T14:57:23.811Z,38.57
2022-08-17T14:59:54.842Z,37.96
2022-08-17T15:02:29.477Z,38.45
2022-08-17T15:05:00.342Z,38.02
2022-08-17T15:07:30.486Z,38.50
2022-08-17T15:10:01.616Z,38.50
2022-08-17T15:12:34.568Z,39.05
2022-08-17T15:15:04.674Z,39.03
2022-08-17T15:17:43.667Z,38.63
2022-08-17T15:20:15.753Z,38.32
2022-08-17T15:22:45.101Z,39.38
2022-08-17T15:25:14.745Z,39.16
2022-08-17T15:27:42.735Z,38.91
2022-08-17T15:30:11.792Z,38.92
2022-08-17T15:32:45.844Z,38.94
2022-08-17T15:35:27.868Z,39.60
2022-08-17T15:37:58.098Z,39.20
2022-08-17T15:40:27.232Z,39.26
2022-08-17T15:42:55.063Z,39.05
2022-08-17T15:45:26.629Z,38.85
2022-08-17T15:47:54.258Z,39.00
2022-08-17T15:50:22.008Z,39.12
2022-08-17T15:52:56.039Z,39.57
2022-08-17T15:55:24.385Z,39.97
2022-08-17T15:57:53.598Z,39.70
2022-08-17T16:00:23.629Z,39.15
2022-08-17T16:03:46.298Z,39.28
2022-08-17T16:05:40.698Z,39.43
2022-08-17T16:08:10.995Z,39.39
2022-08-17T16:10:38.968Z,39.44
2022-08-17T16:13:17.911Z,39.85
2022-08-17T16:15:51.053Z,40.02
2022-08-17T16:18:30.971Z,39.96
2022-08-17T16:21:19.212Z,40.11
2022-08-17T16:23:47.364Z,39.65
2022-08-17T16:26:14.959Z,39.83
2022-08-17T16:28:43.993Z,39.34
2022-08-17T16:31:12.161Z,39.53
2022-08-17T16:33:40.339Z,39.81
2022-08-17T16:36:08.918Z,39.99
2022-08-17T16:38:38.366Z,40.03
2022-08-17T16:41:06.809Z,39.75
2022-08-17T16:43:35.505Z,39.42
2022-08-17T16:46:04.738Z,39.45
2022-08-17T16:48:32.373Z,39.45
2022-08-17T16:51:04.461Z,39.52
2022-08-17T16:53:32.802Z,39.40
2022-08-17T16:56:00.368Z,39.29
2022-08-17T16:58:28.120Z,40.29
2022-08-17T17:00:59.584Z,40.08
2022-08-17T17:03:31.148Z,40.09
2022-08-17T17:06:07.214Z,40.41
2022-08-17T17:08:42.051Z,40.16
2022-08-17T17:11:15.441Z,40.17
2022-08-17T17:13:48.001Z,40.44
2022-08-17T17:16:21.591Z,40.27
2022-08-17T17:19:09.343Z,40.57
2022-08-17T17:21:43.434Z,40.44
2022-08-17T17:24:16.313Z,40.44
2022-08-17T17:27:09.179Z,40.61
2022-08-17T17:29:48.995Z,40.43
2022-08-17T17:32:22.902Z,41.41
2022-08-17T17:35:02.767Z,40.92
2022-08-17T17:37:35.127Z,40.94
2022-08-17T17:40:07.711Z,41.20
2022-08-17T17:42:35.772Z,41.42
2022-08-17T17:45:16.880Z,41.10
2022-08-17T17:47:45.774Z,41.68
2022-08-17T17:50:16.920Z,41.47
2022-08-17T17:52:53.313Z,42.11
2022-08-17T17:55:34.482Z,42.01
2022-08-17T17:58:14.418Z,42.01
2022-08-17T18:00:50.214Z,42.30
2022-08-17T18:03:36.961Z,42.88
2022-08-17T18:06:19.028Z,42.63
2022-08-17T18:09:10.350Z,43.19
2022-08-17T18:11:54.671Z,43.45
2022-08-17T18:14:38.266Z,43.49
2022-08-17T18:17:07.575Z,43.90
2022-08-17T18:19:35.238Z,43.84
2022-08-17T18:22:12.974Z,43.79
2022-08-17T18:24:45.083Z,43.81
2022-08-17T18:27:23.190Z,44.27
2022-08-17T18:29:52.927Z,44.23
2022-08-17T18:32:33.442Z,45.01
2022-08-17T18:35:27.807Z,45.72
2022-08-17T18:37:58.692Z,45.34
2022-08-17T18:40:31.610Z,45.53
2022-08-17T18:43:03.738Z,45.67
2022-08-17T18:45:34.382Z,45.68
2022-08-17T18:48:04.047Z,46.07
2022-08-17T18:50:39.612Z,45.96
2022-08-17T18:53:26.775Z,46.12
2022-08-17T18:56:22.393Z,46.85
2022-08-17T18:59:09.713Z,46.80
2022-08-17T19:01:52.463Z,46.87
2022-08-17T19:04:36.683Z,46.37
2022-08-17T19:07:24.401Z,47.53
2022-08-17T19:09:56.999Z,47.87
2022-08-17T19:12:32.095Z,47.82
2022-08-17T19:15:01.451Z,47.84
2022-08-17T19:17:37.293Z,47.93
2022-08-17T19:20:13.779Z,48.05
2022-08-17T19:22:52.334Z,48.29
2022-08-17T19:25:27.117Z,47.29
2022-08-17T19:27:58.677Z,47.95
2022-08-17T19:30:27.826Z,48.94
2022-08-17T19:32:57.747Z,48.84
2022-08-17T19:35:31.679Z,48.51
2022-08-17T19:38:12.862Z,48.72
2022-08-17T19:40:53.941Z,48.66
2022-08-17T19:43:30.616Z,48.10
2022-08-17T19:46:05.908Z,48.64
2022-08-17T19:48:48.740Z,48.19
2022-08-17T19:51:21.633Z,47.30
2022-08-17T19:54:05.369Z,47.18
2022-08-17T19:56:43.908Z,48.06
2022-08-17T19:59:17.172Z,49.16
2022-08-17T20:01:48.536Z,47.48
2022-08-17T20:04:33.134Z,48.79
2022-08-17T20:07:04.472Z,48.36
2022-08-17T20:09:38.121Z,48.43
2022-08-17T20:12:10.742Z,49.53
2022-08-17T20:14:53.327Z,48.03
2022-08-17T20:17:24.741Z,48.39
2022-08-17T20:20:02.528Z,48.28
2022-08-17T20:22:49.766Z,49.00
2022-08-17T20:25:30.528Z,48.30
2022-08-17T20:28:06.352Z,48.71
2022-08-17T20:30:38.346Z,49.49
2022-08-17T20:33:12.504Z,48.59
2022-08-17T20:36:00.272Z,49.54
2022-08-17T20:38:41.484Z,48.90
2022-08-17T20:41:15.462Z,48.69
2022-08-17T20:43:51.332Z,48.66
2022-08-17T20:46:43.235Z,49.12
2022-08-17T20:49:26.024Z,49.91
2022-08-17T20:52:01.518Z,48.97
2022-08-17T20:54:44.357Z,48.52
2022-08-17T20:57:49.703Z,49.73
2022-08-17T21:00:45.531Z,49.44
2022-08-17T21:03:52.926Z,49.46
2022-08-17T21:06:23.875Z,49.45
2022-08-17T21:08:57.646Z,48.75
2022-08-17T21:12:02.306Z,47.80
2022-08-17T21:14:56.172Z,49.08
2022-08-17T21:17:40.020Z,48.96
2022-08-17T21:20:24.178Z,49.73
2022-08-17T21:23:03.562Z,48.74
2022-08-17T21:25:55.942Z,49.97
2022-08-17T21:28:34.179Z,49.66
2022-08-17T21:31:08.693Z,49.65
2022-08-17T21:33:38.984Z,47.37
2022-08-17T21:36:24.615Z,49.05
2022-08-17T21:39:08.828Z,49.22
2022-08-17T21:41:47.787Z,49.72
2022-08-17T21:44:22.575Z,48.80
2022-08-17T21:46:53.650Z,48.98
2022-08-17T21:49:27.172Z,49.17
2022-08-17T21:51:57.345Z,48.85
2022-08-17T21:54:31.330Z,48.51
2022-08-17T21:57:01.832Z,49.06
2022-08-17T21:59:34.685Z,48.35
2022-08-17T22:02:06.411Z,49.35
2022-08-17T22:04:36.290Z,48.25
2022-08-17T22:07:06.352Z,48.85
2022-08-17T22:09:36.336Z,48.09
2022-08-17T22:12:09.075Z,48.56
2022-08-17T22:14:52.711Z,49.46
2022-08-17T22:17:25.372Z,48.10
2022-08-17T22:19:56.244Z,48.65
2022-08-17T22:22:34.199Z,49.03
2022-08-17T22:25:03.013Z,48.35
2022-08-17T22:27:47.035Z,49.17
2022-08-17T22:30:20.083Z,48.96
2022-08-17T22:32:49.827Z,50.19
2022-08-17T22:35:33.147Z,50.79
2022-08-17T22:38:32.115Z,51.34
2022-08-17T22:41:30.142Z,50.94
2022-08-17T22:43:59.437Z,50.87
2022-08-17T22:46:28.316Z,51.38
2022-08-17T22:49:00.301Z,51.12
2022-08-17T22:51:31.887Z,50.61
2022-08-17T22:54:21.889Z,49.87
2022-08-17T22:57:11.801Z,51.23
2022-08-17T22:59:46.915Z,50.88
2022-08-17T23:02:26.112Z,51.01
2022-08-17T23:05:16.849Z,49.26
2022-08-17T23:07:46.479Z,50.39
2022-08-17T23:10:15.601Z,48.52
2022-08-17T23:12:43.365Z,49.15
2022-08-17T23:15:14.231Z,48.49
2022-08-17T23:17:42.668Z,48.91
2022-08-17T23:20:17.564Z,50.90
2022-08-17T23:22:51.776Z,49.42
2022-08-17T23:25:25.856Z,49.88
2022-08-17T23:27:54.484Z,49.12
2022-08-17T23:30:27.186Z,49.49
2022-08-17T23:32:56.583Z,50.69
2022-08-17T23:35:39.683Z,51.00
2022-08-17T23:38:09.119Z,51.14
2022-08-17T23:40:37.739Z,49.23
2022-08-17T23:43:17.615Z,49.91
2022-08-17T23:45:52.612Z,51.24
2022-08-17T23:48:34.961Z,50.66
2022-08-17T23:51:09.418Z,51.60
2022-08-17T23:53:40.203Z,50.41
2022-08-17T23:56:11.198Z,50.28
2022-08-17T23:58:43.062Z,50.11
